Richlands, North Carolina
Current Conditions -  °F | °C
As of 4:55 AM on Sunday 21 Dec 2014 (Local Time) from KOAJ Reporting Station
Few Clouds Few Clouds  
Wind Chill: 30°   Ceiling: Unl
Heat Index: 34°   Visibility: 7mi
Dew Point: 30°   Wind: 5mph
Humidity: 87%   Direction: 350°N
Pressure: 30.26"   Gusts: NA
Location:  34.9°N, 77.55°W
Report Text: KOAJ 210955Z AUTO 35004KT 7SM FEW090 01/M01 A3026 RMK AO1
Loading
Personal Weather Stations






























Interactive Weather Map New forecast layout! Learn more

10-Day Weather Forecast

Advertisements
Track Severe Weather on mobile